createdAt,value
2024-04-16T00:00:32.700Z,11.15
2024-04-16T00:03:17.735Z,11.12
2024-04-16T00:06:02.714Z,11.14
2024-04-16T00:08:47.612Z,11.19
2024-04-16T00:11:32.640Z,11.16
2024-04-16T00:14:17.617Z,11.08
2024-04-16T00:17:02.770Z,11.08
2024-04-16T00:19:47.627Z,11.02
2024-04-16T00:22:32.756Z,11.02
2024-04-16T00:25:17.800Z,11.16
2024-04-16T00:28:02.762Z,11.21
2024-04-16T00:30:47.676Z,11.21
2024-04-16T00:33:32.669Z,10.96
2024-04-16T00:36:17.655Z,11.02
2024-04-16T00:39:02.720Z,10.87
2024-04-16T00:41:47.714Z,10.86
2024-04-16T00:44:32.857Z,10.99
2024-04-16T00:47:17.781Z,10.44
2024-04-16T00:50:02.790Z,10.70
2024-04-16T00:52:47.664Z,10.71
2024-04-16T00:55:32.980Z,10.76
2024-04-16T00:58:18.056Z,10.85
2024-04-16T01:01:03.553Z,10.95
2024-04-16T01:03:48.564Z,10.70
2024-04-16T01:06:33.641Z,10.77
2024-04-16T01:09:18.652Z,10.83
2024-04-16T01:12:03.674Z,10.92
2024-04-16T01:14:48.830Z,10.90
2024-04-16T01:17:33.912Z,10.75
2024-04-16T01:20:18.727Z,10.81
2024-04-16T01:23:03.870Z,10.67
2024-04-16T01:25:48.866Z,10.62
2024-04-16T01:28:34.021Z,10.62
2024-04-16T01:31:18.978Z,10.55
2024-04-16T01:34:03.953Z,10.54
2024-04-16T01:36:48.893Z,10.26
2024-04-16T01:39:35.181Z,10.31
2024-04-16T01:42:21.825Z,10.49
2024-04-16T01:45:06.828Z,10.53
2024-04-16T01:47:51.995Z,10.13
2024-04-16T01:50:36.853Z,10.16
2024-04-16T01:53:21.855Z,9.88
2024-04-16T01:56:06.986Z,9.73
2024-04-16T01:58:52.523Z,9.86
2024-04-16T02:01:37.824Z,10.14
2024-04-16T02:04:22.674Z,10.10
2024-04-16T02:07:07.752Z,9.88
2024-04-16T02:09:52.649Z,10.20
2024-04-16T02:12:37.764Z,10.28
2024-04-16T02:15:22.721Z,10.13
2024-04-16T02:18:07.673Z,9.92
2024-04-16T02:20:52.803Z,10.06
2024-04-16T02:23:37.753Z,9.93
2024-04-16T02:26:22.787Z,10.06
2024-04-16T02:29:07.691Z,9.97
2024-04-16T02:31:52.768Z,10.22
2024-04-16T02:34:37.795Z,10.19
2024-04-16T02:37:22.941Z,10.08
2024-04-16T02:40:08.099Z,9.47
2024-04-16T02:42:53.198Z,10.09
2024-04-16T02:45:38.224Z,10.12
2024-04-16T02:48:23.204Z,10.19
2024-04-16T02:51:08.145Z,10.23
2024-04-16T02:53:53.123Z,10.04
2024-04-16T02:56:38.357Z,10.23
2024-04-16T02:59:23.344Z,10.17
2024-04-16T03:02:08.339Z,10.13
2024-04-16T03:04:53.415Z,10.15
2024-04-16T03:07:38.468Z,9.80
2024-04-16T03:10:23.476Z,9.89
2024-04-16T03:13:08.498Z,9.94
2024-04-16T03:15:53.451Z,9.99
2024-04-16T03:18:38.391Z,9.90
2024-04-16T03:21:25.958Z,9.90
2024-04-16T03:24:11.748Z,9.79
2024-04-16T03:26:56.741Z,9.75
2024-04-16T03:29:41.758Z,9.87
2024-04-16T03:32:26.808Z,9.80
2024-04-16T03:35:12.228Z,9.54
2024-04-16T03:37:57.287Z,9.64
2024-04-16T03:40:42.306Z,9.77
2024-04-16T03:43:27.385Z,9.82
2024-04-16T03:52:18.627Z,9.67
2024-04-16T03:55:03.425Z,9.50
2024-04-16T03:57:48.407Z,9.58
2024-04-16T04:00:33.445Z,9.54
2024-04-16T04:03:18.399Z,9.68
2024-04-16T04:06:03.344Z,9.61
2024-04-16T04:08:48.429Z,9.58
2024-04-16T04:11:33.543Z,9.43
2024-04-16T04:14:18.591Z,9.39
2024-04-16T04:17:03.690Z,9.39
2024-04-16T04:19:48.724Z,9.20
2024-04-16T04:22:33.978Z,9.12
2024-04-16T04:25:18.993Z,9.21
2024-04-16T04:28:03.998Z,9.29
2024-04-16T04:30:49.113Z,9.35
2024-04-16T04:33:34.070Z,9.19
2024-04-16T04:36:19.126Z,9.12
2024-04-16T04:39:04.178Z,9.09
2024-04-16T04:41:49.218Z,9.16
2024-04-16T04:44:34.492Z,9.18
2024-04-16T04:47:23.695Z,9.04
2024-04-16T04:50:09.304Z,9.05
2024-04-16T04:52:54.305Z,8.95
2024-04-16T04:55:39.490Z,8.86
2024-04-16T04:58:25.493Z,8.85
2024-04-16T05:01:10.550Z,8.74
2024-04-16T05:03:55.673Z,8.64
2024-04-16T05:06:40.652Z,8.34
2024-04-16T05:09:25.739Z,8.37
2024-04-16T05:12:13.964Z,8.14
2024-04-16T05:15:00.482Z,8.09
2024-04-16T05:17:45.585Z,8.10
2024-04-16T05:20:30.450Z,7.71
2024-04-16T05:23:15.334Z,7.58
2024-04-16T05:26:02.811Z,7.47
2024-04-16T05:28:48.929Z,7.28
2024-04-16T05:31:34.064Z,7.23
2024-04-16T05:34:19.108Z,7.30
2024-04-16T05:37:07.522Z,7.33
2024-04-16T05:39:52.459Z,7.02
2024-04-16T05:42:37.424Z,7.00
2024-04-16T05:45:22.498Z,6.98
2024-04-16T05:48:07.648Z,7.16
2024-04-16T05:50:52.530Z,7.22
2024-04-16T05:53:37.679Z,7.03
2024-04-16T05:56:22.719Z,7.18
2024-04-16T05:59:07.720Z,7.24
2024-04-16T06:01:52.824Z,7.28
2024-04-16T06:04:38.239Z,7.21
2024-04-16T06:07:23.288Z,7.23
2024-04-16T06:10:08.229Z,7.28
2024-04-16T06:12:53.424Z,7.31
2024-04-16T06:15:38.482Z,7.35
2024-04-16T06:18:23.591Z,7.42
2024-04-16T06:21:08.603Z,7.55
2024-04-16T06:23:53.678Z,7.54
2024-04-16T06:26:38.645Z,7.69
2024-04-16T06:29:23.634Z,7.25
2024-04-16T06:32:08.801Z,7.51
2024-04-16T06:34:53.785Z,7.59
2024-04-16T06:37:38.983Z,7.61
2024-04-16T06:40:23.923Z,7.55
2024-04-16T06:43:09.419Z,7.55
2024-04-16T06:45:54.355Z,7.47
2024-04-16T06:48:39.540Z,7.71
2024-04-16T06:51:24.759Z,7.67
2024-04-16T06:54:09.742Z,7.59
2024-04-16T06:56:54.781Z,7.47
2024-04-16T06:59:39.729Z,7.54
2024-04-16T07:02:24.765Z,7.52
2024-04-16T07:05:09.737Z,7.71
2024-04-16T07:07:54.879Z,7.84
2024-04-16T07:10:40.115Z,8.01
2024-04-16T07:13:25.629Z,7.81
2024-04-16T07:16:10.613Z,7.66
2024-04-16T07:18:55.665Z,7.89
2024-04-16T07:21:40.834Z,7.49
2024-04-16T07:24:25.839Z,7.55
2024-04-16T07:27:10.904Z,7.56
2024-04-16T07:29:55.851Z,7.65
2024-04-16T07:32:41.216Z,7.63
2024-04-16T07:35:26.845Z,7.82
2024-04-16T07:38:11.840Z,7.93
2024-04-16T07:40:56.879Z,7.82
2024-04-16T07:43:41.947Z,7.88
2024-04-16T07:46:26.947Z,7.85
2024-04-16T07:49:11.903Z,7.82
2024-04-16T07:51:56.879Z,8.00
2024-04-16T07:54:41.864Z,7.40
2024-04-16T07:57:26.983Z,7.80
2024-04-16T08:00:12.000Z,8.05
2024-04-16T08:02:56.891Z,8.31
2024-04-16T08:05:42.004Z,8.48
2024-04-16T08:08:34.811Z,8.44
2024-04-16T08:11:21.666Z,8.69
2024-04-16T08:14:09.041Z,8.50
2024-04-16T08:16:54.895Z,8.71
2024-04-16T08:19:39.894Z,8.94
2024-04-16T08:22:24.892Z,9.31
2024-04-16T08:25:14.645Z,9.26
2024-04-16T08:27:59.628Z,9.51
2024-04-16T08:30:44.692Z,9.76
2024-04-16T08:33:30.034Z,9.20
2024-04-16T08:36:15.212Z,9.69
2024-04-16T08:39:00.416Z,9.96
2024-04-16T08:41:45.325Z,9.90
2024-04-16T08:44:30.620Z,10.19
2024-04-16T08:47:15.553Z,9.97
2024-04-16T08:50:00.648Z,10.04
2024-04-16T08:52:45.714Z,10.00
2024-04-16T08:55:30.739Z,9.98
2024-04-16T08:58:15.843Z,10.31
2024-04-16T09:01:01.046Z,10.47
2024-04-16T09:03:45.984Z,10.48
2024-04-16T09:06:30.944Z,10.18
2024-04-16T09:09:15.940Z,10.54
2024-04-16T09:12:01.062Z,10.71
2024-04-16T09:14:46.051Z,10.86
2024-04-16T09:17:31.391Z,10.83
2024-04-16T09:20:16.596Z,10.92
2024-04-16T09:23:04.983Z,10.96
2024-04-16T09:25:52.101Z,10.73
2024-04-16T09:28:37.071Z,10.68
2024-04-16T09:31:22.172Z,10.32
2024-04-16T09:34:07.116Z,10.33
2024-04-16T09:36:52.079Z,10.31
2024-04-16T09:39:37.075Z,10.50
2024-04-16T09:42:22.118Z,10.59
2024-04-16T09:45:07.127Z,10.60
2024-04-16T09:47:52.221Z,10.52
2024-04-16T09:50:46.887Z,10.11
2024-04-16T09:53:39.240Z,10.38
2024-04-16T09:56:24.309Z,10.40
2024-04-16T09:59:09.452Z,10.12
2024-04-16T10:01:54.411Z,10.47
2024-04-16T10:04:39.557Z,10.69
2024-04-16T10:07:24.495Z,10.81
2024-04-16T10:10:09.703Z,10.54
2024-04-16T10:12:54.500Z,10.70
2024-04-16T10:15:39.530Z,10.68
2024-04-16T10:18:24.769Z,10.53
2024-04-16T10:21:09.720Z,10.47
2024-04-16T10:23:54.787Z,10.73
2024-04-16T10:26:39.904Z,10.84
2024-04-16T10:29:25.114Z,10.83
2024-04-16T10:32:10.811Z,10.73
2024-04-16T10:34:56.059Z,10.70
2024-04-16T10:37:41.329Z,11.07
2024-04-16T10:40:26.299Z,10.94
2024-04-16T10:43:11.481Z,10.96
2024-04-16T10:45:56.553Z,10.94
2024-04-16T10:48:41.531Z,10.40
2024-04-16T10:51:26.530Z,10.71
2024-04-16T10:54:11.675Z,10.73
2024-04-16T10:56:56.634Z,11.10
2024-04-16T10:59:48.711Z,10.27
2024-04-16T11:02:39.315Z,10.60
2024-04-16T11:05:24.452Z,11.06
2024-04-16T11:08:09.559Z,11.00
2024-04-16T11:10:54.486Z,11.02
2024-04-16T11:13:39.588Z,10.55
2024-04-16T11:16:24.470Z,10.74
2024-04-16T11:19:09.581Z,10.66
2024-04-16T11:21:54.406Z,10.70
2024-04-16T11:24:39.376Z,10.92
2024-04-16T11:27:24.477Z,10.67
2024-04-16T11:30:09.461Z,10.83
2024-04-16T11:32:54.691Z,10.63
2024-04-16T11:35:39.624Z,10.27
2024-04-16T11:38:24.783Z,10.76
2024-04-16T11:41:12.741Z,10.33
2024-04-16T11:43:58.732Z,10.58
2024-04-16T11:46:43.810Z,10.47
2024-04-16T11:49:29.256Z,10.70
2024-04-16T11:52:14.511Z,10.74
2024-04-16T11:54:59.530Z,10.56
2024-04-16T11:57:44.668Z,10.67
2024-04-16T12:00:29.821Z,10.70
2024-04-16T12:03:14.855Z,10.88
2024-04-16T12:05:59.913Z,10.90
2024-04-16T12:08:44.946Z,11.15
2024-04-16T12:11:29.945Z,10.92
2024-04-16T12:14:14.895Z,11.26
2024-04-16T12:16:59.877Z,11.18
2024-04-16T12:19:44.795Z,11.07
2024-04-16T12:22:29.823Z,11.30
2024-04-16T12:25:14.820Z,11.52
2024-04-16T12:27:59.837Z,11.51
2024-04-16T12:30:44.915Z,11.69
2024-04-16T12:33:29.850Z,11.62
2024-04-16T12:36:14.840Z,11.71
2024-04-16T12:38:59.729Z,11.73
2024-04-16T12:41:45.011Z,11.38
2024-04-16T12:44:30.084Z,11.69
2024-04-16T12:47:14.975Z,11.42
2024-04-16T12:50:00.173Z,11.59
2024-04-16T12:52:45.161Z,11.43
2024-04-16T12:55:30.263Z,11.34
2024-04-16T12:58:15.201Z,11.18
2024-04-16T13:01:00.134Z,10.71
2024-04-16T13:03:45.136Z,10.68
2024-04-16T13:06:30.284Z,10.55
2024-04-16T13:09:15.215Z,10.71
2024-04-16T13:12:00.081Z,10.85
2024-04-16T13:14:45.340Z,11.05
2024-04-16T13:17:30.348Z,10.57
2024-04-16T13:20:15.408Z,10.39
2024-04-16T13:23:00.471Z,10.66
2024-04-16T13:25:45.653Z,10.55
2024-04-16T13:28:30.578Z,10.54
2024-04-16T13:31:15.694Z,10.45
2024-04-16T13:34:00.895Z,10.65
2024-04-16T13:36:45.903Z,9.97
2024-04-16T13:39:31.040Z,9.86
2024-04-16T13:42:15.894Z,10.10
2024-04-16T13:45:00.822Z,9.98
2024-04-16T13:47:46.060Z,9.98
2024-04-16T13:50:30.893Z,10.23
2024-04-16T13:53:15.958Z,10.14
2024-04-16T13:56:00.962Z,10.09
2024-04-16T13:58:46.027Z,10.27
2024-04-16T14:01:30.920Z,10.10
2024-04-16T14:04:16.056Z,10.11
2024-04-16T14:07:00.953Z,10.08
2024-04-16T14:09:46.139Z,9.52
2024-04-16T14:12:31.245Z,9.85
2024-04-16T14:15:16.212Z,10.12
2024-04-16T14:18:01.418Z,10.36
2024-04-16T14:20:46.428Z,10.03
2024-04-16T14:23:31.717Z,10.12
2024-04-16T14:26:16.750Z,10.04
2024-04-16T14:29:01.687Z,9.84
2024-04-16T14:31:46.860Z,9.81
2024-04-16T14:34:32.214Z,9.59
2024-04-16T14:37:17.308Z,9.41
2024-04-16T14:40:02.268Z,9.48
2024-04-16T14:42:47.418Z,9.28
2024-04-16T14:45:32.324Z,9.39
2024-04-16T14:48:17.548Z,9.24
2024-04-16T14:51:02.495Z,9.17
2024-04-16T14:53:47.571Z,8.88
2024-04-16T14:56:32.652Z,8.91
2024-04-16T14:59:17.557Z,8.93
2024-04-16T15:02:02.714Z,8.69
2024-04-16T15:04:47.633Z,8.96
2024-04-16T15:07:32.557Z,8.67
2024-04-16T15:10:17.515Z,8.36
2024-04-16T15:13:02.435Z,8.50
2024-04-16T15:15:47.400Z,8.62
2024-04-16T15:18:32.491Z,8.71
2024-04-16T15:21:17.520Z,8.75
2024-04-16T15:24:02.389Z,8.73
2024-04-16T15:26:47.576Z,8.83
2024-04-16T15:29:32.413Z,8.80
2024-04-16T15:32:17.477Z,8.55
2024-04-16T15:35:02.582Z,8.46
2024-04-16T15:37:47.672Z,8.34
2024-04-16T15:40:32.820Z,8.38
2024-04-16T15:43:18.918Z,8.31
2024-04-16T15:46:04.231Z,8.47
2024-04-16T15:48:49.203Z,8.55
2024-04-16T15:51:34.370Z,8.61
2024-04-16T15:54:19.343Z,8.63
2024-04-16T15:57:04.390Z,8.82
2024-04-16T15:59:49.518Z,8.73
2024-04-16T16:02:34.573Z,8.82
2024-04-16T16:05:19.511Z,8.96
2024-04-16T16:08:06.223Z,8.88
2024-04-16T16:10:51.397Z,9.03
2024-04-16T16:13:36.218Z,8.80
2024-04-16T16:16:21.296Z,8.84
2024-04-16T16:19:08.369Z,8.56
2024-04-16T16:21:53.490Z,8.77
2024-04-16T16:24:38.621Z,8.66
2024-04-16T16:27:23.532Z,8.70
2024-04-16T16:30:08.684Z,8.54
2024-04-16T16:32:53.861Z,8.56
2024-04-16T16:35:38.776Z,8.53
2024-04-16T16:38:23.878Z,8.16
2024-04-16T16:41:08.871Z,8.42
2024-04-16T16:43:53.958Z,8.40
2024-04-16T16:46:38.981Z,8.32
2024-04-16T16:49:23.971Z,8.31
2024-04-16T16:52:10.731Z,8.13
2024-04-16T16:54:55.614Z,8.02
2024-04-16T16:57:40.609Z,8.09
2024-04-16T17:00:25.562Z,8.10
2024-04-16T17:03:10.746Z,8.06
2024-04-16T17:05:55.638Z,7.98
2024-04-16T17:08:40.639Z,8.22
2024-04-16T17:11:25.884Z,8.21
2024-04-16T17:14:11.133Z,8.17
2024-04-16T17:16:56.518Z,8.20
2024-04-16T17:19:41.463Z,8.16
2024-04-16T17:22:26.459Z,8.18
2024-04-16T17:25:11.421Z,8.34
2024-04-16T17:27:56.420Z,8.39
2024-04-16T17:30:41.504Z,8.35
2024-04-16T17:33:26.367Z,8.22
2024-04-16T17:36:11.367Z,8.08
2024-04-16T17:38:56.126Z,7.97
2024-04-16T17:41:41.255Z,7.93
2024-04-16T17:44:26.226Z,7.90
2024-04-16T17:47:11.465Z,7.86
2024-04-16T17:49:56.366Z,7.89
2024-04-16T17:52:41.389Z,7.83
2024-04-16T17:55:26.581Z,7.88
2024-04-16T17:58:11.412Z,7.92
2024-04-16T18:00:56.451Z,7.75
2024-04-16T18:03:41.418Z,7.74
2024-04-16T18:06:26.588Z,7.69
2024-04-16T18:09:11.773Z,7.68
2024-04-16T18:11:56.815Z,7.61
2024-04-16T18:14:42.034Z,7.59
2024-04-16T18:17:27.065Z,7.63
2024-04-16T18:20:12.281Z,7.61
2024-04-16T18:22:57.422Z,7.60
2024-04-16T18:25:42.372Z,7.50
2024-04-16T18:28:32.543Z,7.45
2024-04-16T18:31:18.335Z,7.50
2024-04-16T18:34:03.483Z,7.47
2024-04-16T18:36:48.536Z,7.47
2024-04-16T18:39:33.639Z,7.32
2024-04-16T18:42:18.833Z,7.26
2024-04-16T18:45:10.769Z,7.40
2024-04-16T18:47:55.675Z,7.36
2024-04-16T18:50:40.615Z,7.24
2024-04-16T18:53:25.612Z,7.31
2024-04-16T18:56:10.783Z,7.32
2024-04-16T18:58:55.730Z,7.25
2024-04-16T19:01:40.887Z,7.33
2024-04-16T19:04:25.726Z,7.29
2024-04-16T19:07:10.706Z,7.32
2024-04-16T19:09:55.881Z,7.16
2024-04-16T19:12:40.821Z,7.05
2024-04-16T19:15:25.950Z,7.05
2024-04-16T19:18:11.052Z,7.00
2024-04-16T19:20:56.176Z,6.99
2024-04-16T19:23:41.175Z,7.06
2024-04-16T19:26:26.119Z,6.97
2024-04-16T19:29:11.286Z,7.13
2024-04-16T19:31:57.495Z,7.03
2024-04-16T19:34:42.466Z,7.14
2024-04-16T19:37:27.489Z,7.20
2024-04-16T19:40:12.713Z,7.20
2024-04-16T19:42:57.835Z,7.19
2024-04-16T19:45:42.759Z,7.06
2024-04-16T19:48:27.933Z,7.03
2024-04-16T19:51:12.842Z,7.07
2024-04-16T19:53:58.101Z,6.94
2024-04-16T19:56:42.988Z,6.89
2024-04-16T19:59:28.072Z,6.98
2024-04-16T20:02:13.026Z,6.93
2024-04-16T20:04:58.056Z,7.01
2024-04-16T20:07:43.189Z,7.08
2024-04-16T20:10:28.241Z,7.10
2024-04-16T20:13:13.314Z,7.03
2024-04-16T20:15:58.220Z,6.92
2024-04-16T20:18:43.314Z,6.90
2024-04-16T20:21:28.145Z,6.94
2024-04-16T20:24:12.995Z,6.89
2024-04-16T20:26:57.983Z,6.79
2024-04-16T20:29:42.963Z,6.63
2024-04-16T20:32:28.126Z,6.73
2024-04-16T20:35:13.207Z,6.61
2024-04-16T20:37:58.130Z,6.48
2024-04-16T20:40:43.061Z,6.62
2024-04-16T20:43:28.254Z,6.62
2024-04-16T20:46:13.134Z,6.68
2024-04-16T20:48:58.116Z,6.80
2024-04-16T20:51:43.354Z,6.77
2024-04-16T20:54:28.334Z,6.47
2024-04-16T20:57:13.497Z,6.42
2024-04-16T20:59:58.527Z,6.61
2024-04-16T21:02:43.793Z,6.67
2024-04-16T21:05:28.733Z,6.45
2024-04-16T21:08:13.722Z,6.44
2024-04-16T21:10:59.068Z,6.54
2024-04-16T21:13:43.957Z,6.69
2024-04-16T21:16:28.928Z,6.71
2024-04-16T21:19:13.914Z,6.58
2024-04-16T21:21:59.120Z,6.72
2024-04-16T21:24:44.179Z,6.68
2024-04-16T21:27:29.278Z,6.64
2024-04-16T21:30:14.412Z,6.59
2024-04-16T21:32:59.598Z,6.66
2024-04-16T21:35:45.193Z,6.55
2024-04-16T21:38:30.306Z,6.37
2024-04-16T21:41:15.455Z,6.37
2024-04-16T21:44:00.392Z,6.20
2024-04-16T21:46:45.502Z,6.29
2024-04-16T21:49:30.533Z,6.18
2024-04-16T21:52:15.412Z,5.91
2024-04-16T21:55:00.528Z,6.02
2024-04-16T21:57:45.489Z,6.01
2024-04-16T22:00:30.598Z,5.82
2024-04-16T22:03:15.690Z,5.84
2024-04-16T22:06:01.353Z,5.74
2024-04-16T22:08:46.361Z,5.86
2024-04-16T22:11:31.399Z,5.70
2024-04-16T22:14:16.371Z,5.66
2024-04-16T22:17:01.499Z,5.52
2024-04-16T22:19:47.059Z,5.49
2024-04-16T22:22:31.939Z,5.45
2024-04-16T22:25:17.022Z,5.46
2024-04-16T22:28:01.791Z,5.32
2024-04-16T22:30:46.918Z,5.04
2024-04-16T22:33:31.996Z,5.01
2024-04-16T22:36:19.574Z,5.15
2024-04-16T22:39:06.603Z,4.84
2024-04-16T22:41:51.693Z,4.94
2024-04-16T22:44:36.819Z,5.08
2024-04-16T22:47:21.867Z,5.01
2024-04-16T22:50:06.773Z,4.95
2024-04-16T22:52:51.779Z,4.98
2024-04-16T22:55:36.760Z,4.97
2024-04-16T22:58:21.864Z,4.68
2024-04-16T23:01:06.745Z,4.64
2024-04-16T23:03:51.875Z,4.67
2024-04-16T23:06:36.968Z,4.64
2024-04-16T23:09:21.954Z,4.64
2024-04-16T23:12:07.158Z,4.51
2024-04-16T23:14:52.150Z,4.42
2024-04-16T23:17:37.291Z,4.35
2024-04-16T23:20:22.278Z,4.29
2024-04-16T23:23:07.322Z,4.14
2024-04-16T23:25:52.658Z,4.18
2024-04-16T23:28:37.852Z,4.20
2024-04-16T23:31:22.967Z,4.04
2024-04-16T23:34:08.014Z,4.20
2024-04-16T23:36:52.978Z,4.16
2024-04-16T23:39:37.924Z,4.28
2024-04-16T23:42:23.001Z,4.20
2024-04-16T23:45:08.250Z,4.30
2024-04-16T23:47:53.388Z,4.36
2024-04-16T23:50:38.385Z,4.34
2024-04-16T23:53:23.408Z,4.21
2024-04-16T23:56:08.486Z,4.36
2024-04-16T23:58:53.447Z,4.39
